Details From LDZA - Zagreb
To LDOS - OSIJEK
Flight Number -
Tags generated
Created
Modified
Stats Distance 117 nm / 216 km
Max Altitude 2,400 ft / 732 m
Waypoints 3
Social Downloads 0
Likes 0
Share VATSIM

Download

Looking for another format? Having issues loading an existing format? Contact us
Advertisement - Login to hide

Notes

Basic altitude profile: - Ascent Rate: 2500ft/min - Ascent Speed: 250kts - Cruise Altitude: 35000ft - Cruise Speed: 420kts - Descent Rate: 1500ft/min - Descent Speed: 250kts Options: - Use NATs: yes - Use PACOTS: yes - Use low airways: yes - Use high airways: yes

Route

LDZA CE LDOS

ID Type Via Altitude Latitude Longitude Leg Dist Tot Dist Heading (true) Name
O LDZA APT - 0 ft / 0 m 45.74189˚ 16.06720˚ - 0 nm - Zagreb
CE NDB - 2,400 ft / 732 m 45.52842˚ 18.56005˚ 105 nm 105 nm 96° / 98° CEPIN NDB
O LDOS APT - 0 ft / 0 m 45.46235˚ 18.81134˚ 11 nm 116 nm 110° / 111° OSIJEK

Altitude Profile

Advertisement - Login to hide

LDZA

Details ICAO LDZA (ZAG)
Name Zagreb
Region Croatia
Timezone Europe/Zagreb (UTC+2.0)
Stats Elevation 353 ft / 108 m (AMSL)
Location 45.741890° 16.067200°
Runways 1
Magnetic Variation 4.009° E

METAR

LDZA 270930Z 09004KT 040V140 9999 FEW028 26/18 Q1020 NOSIG

Decode

TAF

TAF LDZA 270525Z 2706/2806 07004KT CAVOK TX28/2713Z TN16/2803Z

Decode

Departure Runways

ID Width Length Bearing (true) Bearing (mag) Surface Threshold Offset Overrun Length
05 148 ft / 45 m 10,659 ft / 3,249 m 46.69° 42.68° Asphalt 0 ft / 0 m 195 ft / 59 m
23 148 ft / 45 m 10,659 ft / 3,249 m 226.71° 222.70° Asphalt 0 ft / 0 m 195 ft / 59 m

LDOS

Details ICAO LDOS (OSI)
Name OSIJEK
Region Croatia
Timezone Europe/Zagreb (UTC+2.0)
Stats Elevation 290 ft / 88 m (AMSL)
Location 45.462353° 18.811338°
Runways 1
Magnetic Variation 4.515° E

METAR

LDOS 270930Z 11006KT CAVOK 26/18 Q1021

Decode

TAF

TAF LDOS 270525Z 2706/2806 11005KT 9999 FEW040 TX29/2714Z TN17/2803Z PROB30 TEMPO 2714/2718 -TSRA FEW040CB

Decode

Destination Runways

ID Width Length Bearing (true) Bearing (mag) Surface Threshold Offset Overrun Length
11 148 ft / 45 m 8,181 ft / 2,494 m 110.60° 106.08° Asphalt 0 ft / 0 m 0 ft / 0 m
29 148 ft / 45 m 8,181 ft / 2,494 m 290.63° 286.11° Asphalt 0 ft / 0 m 0 ft / 0 m

Approach Navaids

Runway Type Ident Frequency Range Bearing (true) Bearing (mag) Slope Elevation
29 Localiser IOS 111.50 MHz 25 nm / 46 km 290.54° 286.02° - 272 ft / 83 m (AMSL)
29 Glidescope IOS 111.50 MHz 25 nm / 46 km 290.54° 286.02° 3.00° 276 ft / 84 m (AMSL)

Popular Alternatives